Time;durP1;ratioP1;P1;durP2;ratioP2;P2;SDS_P1;SDS_P2;PMS_P1;PMS_P2;Temp;Humidity;BMP_temperature;BMP_pressure;BME280_temperature;BME280_humidity;BME280_pressure;Samples;Min_cycle;Max_cycle;Signal;HPM_P1;HPM_P2
2022/07/03 00:00:32;;;;;;;4.40;1.60;;;19.50;99.90;;;;;;5012042;28;20186;-77
2022/07/03 00:02:57;;;;;;;5.00;1.20;;;19.50;99.90;;;;;;4977789;28;20265;-77
2022/07/03 00:05:23;;;;;;;1.13;1.03;;;19.50;99.90;;;;;;4993975;28;20205;-77
2022/07/03 00:07:49;;;;;;;4.23;1.50;;;19.40;99.90;;;;;;4994173;28;20195;-77
2022/07/03 00:10:14;;;;;;;2.13;1.00;;;19.40;99.90;;;;;;4993972;28;20659;-76
2022/07/03 00:12:40;;;;;;;1.60;1.13;;;19.40;99.90;;;;;;4994008;28;20182;-74
2022/07/03 00:15:07;;;;;;;1.83;1.13;;;19.40;99.90;;;;;;5011621;28;20207;-75
2022/07/03 00:17:32;;;;;;;3.23;1.17;;;19.40;99.90;;;;;;4993560;28;20221;-76
2022/07/03 00:19:58;;;;;;;2.93;1.40;;;19.40;99.90;;;;;;4994135;28;20488;-75
2022/07/03 00:22:25;;;;;;;1.57;1.20;;;19.40;99.90;;;;;;5011562;28;20683;-76
2022/07/03 00:24:53;;;;;;;1.43;1.33;;;19.50;99.90;;;;;;5011474;28;20201;-75
2022/07/03 00:27:23;;;;;;;1.67;1.13;;;19.40;99.90;;;;;;5011502;28;20416;-75
2022/07/03 00:29:50;;;;;;;3.00;1.17;;;19.40;99.90;;;;;;5011460;28;20478;-75
2022/07/03 00:32:22;;;;;;;3.13;1.10;;;19.50;99.90;;;;;;5011534;28;20811;-76
2022/07/03 00:34:50;;;;;;;4.10;1.47;;;19.40;99.90;;;;;;5011345;28;21324;-75
2022/07/03 00:37:16;;;;;;;1.10;1.00;;;19.40;99.90;;;;;;5011818;28;20570;-76
2022/07/03 00:39:45;;;;;;;2.43;1.27;;;19.50;99.90;;;;;;4993527;28;21241;-75
2022/07/03 00:42:12;;;;;;;1.10;1.00;;;19.50;99.90;;;;;;5011333;28;20237;-75
2022/07/03 00:44:49;;;;;;;5.50;1.17;;;19.60;99.90;;;;;;5012175;28;21020;-76
2022/07/03 00:47:16;;;;;;;1.07;0.97;;;19.50;99.90;;;;;;4993601;28;20443;-76
2022/07/03 00:49:46;;;;;;;1.40;1.00;;;19.60;99.90;;;;;;4993401;28;20551;-76
2022/07/03 00:52:14;;;;;;;3.10;0.90;;;19.60;99.90;;;;;;5011061;28;20553;-77
2022/07/03 00:55:03;;;;;;;1.20;1.10;;;19.60;99.90;;;;;;5010684;28;20443;-74
2022/07/03 00:57:29;;;;;;;5.73;1.23;;;19.60;99.90;;;;;;5009407;28;20526;-74
2022/07/03 00:59:56;;;;;;;2.00;1.37;;;19.60;99.90;;;;;;5010695;28;20415;-75
2022/07/03 01:02:38;;;;;;;4.40;1.20;;;19.60;99.90;;;;;;5011171;28;20420;-74
2022/07/03 01:05:36;;;;;;;1.40;1.30;;;19.60;99.90;;;;;;5010598;28;20440;-74
2022/07/03 01:08:11;;;;;;;2.00;0.93;;;19.60;99.90;;;;;;5010694;28;20418;-74
2022/07/03 01:10:48;;;;;;;3.73;1.20;;;19.60;99.90;;;;;;4992823;28;20431;-76
2022/07/03 01:13:18;;;;;;;1.93;1.30;;;19.60;99.90;;;;;;5010755;28;20396;-77
2022/07/03 01:15:43;;;;;;;2.40;1.83;;;19.60;99.90;;;;;;5010347;28;20443;-77
2022/07/03 01:18:18;;;;;;;3.07;0.90;;;19.50;99.90;;;;;;5010474;28;20921;-76
2022/07/03 01:20:50;;;;;;;2.87;1.20;;;19.50;99.90;;;;;;5010621;28;20181;-76
2022/07/03 01:23:40;;;;;;;1.33;1.10;;;19.40;99.90;;;;;;5010510;28;20428;-76
2022/07/03 01:26:09;;;;;;;2.27;0.70;;;19.40;99.90;;;;;;5010295;28;20437;-77
2022/07/03 01:28:38;;;;;;;2.83;1.27;;;19.30;99.90;;;;;;4992733;28;20797;-77
2022/07/03 01:31:06;;;;;;;2.53;0.90;;;19.30;99.90;;;;;;4992440;28;20502;-76
2022/07/03 01:33:35;;;;;;;2.00;1.20;;;19.30;99.90;;;;;;4992855;28;20427;-75
2022/07/03 01:36:00;;;;;;;1.63;1.20;;;19.30;99.90;;;;;;4992382;28;20448;-76
2022/07/03 01:38:31;;;;;;;2.83;1.27;;;19.30;99.90;;;;;;5009854;28;20527;-76
2022/07/03 01:40:59;;;;;;;2.50;1.13;;;19.30;99.90;;;;;;5010201;28;20216;-75
2022/07/03 01:43:33;;;;;;;1.30;1.20;;;19.40;99.90;;;;;;5010224;28;20510;-74
2022/07/03 01:46:01;;;;;;;1.53;1.40;;;19.40;99.90;;;;;;5010006;28;20481;-74
2022/07/03 01:48:29;;;;;;;1.17;1.07;;;19.40;99.90;;;;;;5010164;28;20428;-74
2022/07/03 01:50:56;;;;;;;3.40;1.40;;;19.40;99.90;;;;;;5010063;28;20478;-74
2022/07/03 01:53:24;;;;;;;0.90;0.80;;;19.40;99.90;;;;;;5010026;28;20434;-74
2022/07/03 01:55:50;;;;;;;2.10;1.53;;;19.40;99.90;;;;;;5009052;28;20447;-74
2022/07/03 01:58:16;;;;;;;2.33;1.00;;;19.40;99.90;;;;;;5009842;28;20448;-75
2022/07/03 02:00:57;;;;;;;1.53;1.43;;;19.40;99.90;;;;;;5009976;28;20478;-78
2022/07/03 02:03:31;;;;;;;4.93;1.37;;;19.40;99.90;;;;;;4992264;28;20423;-77
2022/07/03 02:06:35;;;;;;;3.53;1.20;;;19.30;99.90;;;;;;4992901;28;20442;-77
2022/07/03 02:09:04;;;;;;;1.47;1.37;;;19.40;99.90;;;;;;5009602;28;20763;-77
2022/07/03 02:11:35;;;;;;;2.37;1.30;;;19.40;99.90;;;;;;4976735;28;20426;-77
2022/07/03 02:14:06;;;;;;;1.40;1.10;;;19.50;99.90;;;;;;4992931;28;20466;-77
2022/07/03 02:16:58;;;;;;;1.17;1.00;;;19.50;99.90;;;;;;4992123;28;20502;-78
2022/07/03 02:19:43;;;;;;;1.10;0.83;;;19.50;99.90;;;;;;4974420;28;20435;-78
2022/07/03 02:22:11;;;;;;;1.00;0.90;;;19.50;99.90;;;;;;5010355;28;20411;-78
2022/07/03 02:24:45;;;;;;;1.70;1.20;;;19.50;99.90;;;;;;4992057;28;20436;-78
2022/07/03 02:27:22;;;;;;;0.93;0.83;;;19.50;99.90;;;;;;4975823;28;20431;-78
2022/07/03 02:29:54;;;;;;;1.30;1.10;;;19.60;99.90;;;;;;5010371;28;20421;-77
2022/07/03 02:32:23;;;;;;;1.40;0.90;;;19.80;99.90;;;;;;5011031;28;20446;-78
2022/07/03 02:35:04;;;;;;;1.53;1.10;;;19.80;99.90;;;;;;5010429;28;20486;-77
2022/07/03 02:37:34;;;;;;;1.17;1.07;;;19.80;99.90;;;;;;4991871;28;20621;-77
2022/07/03 02:40:06;;;;;;;2.40;1.00;;;19.70;99.90;;;;;;4991256;28;20448;-76
2022/07/03 02:43:00;;;;;;;1.23;1.13;;;19.70;99.90;;;;;;4991161;28;20428;-76
2022/07/03 02:45:30;;;;;;;2.70;1.20;;;19.60;99.90;;;;;;5008710;28;20557;-76
2022/07/03 02:48:08;;;;;;;1.37;1.00;;;19.70;99.90;;;;;;5009389;28;20416;-77
2022/07/03 02:50:37;;;;;;;5.53;1.60;;;19.70;99.90;;;;;;5009814;28;20939;-76
2022/07/03 02:53:30;;;;;;;2.40;1.30;;;19.70;99.90;;;;;;5008799;28;20430;-74
2022/07/03 02:56:07;;;;;;;2.30;1.20;;;19.70;99.90;;;;;;4998841;28;20460;-75
2022/07/03 02:59:02;;;;;;;2.13;1.10;;;19.70;99.90;;;;;;4991065;28;20471;-75
2022/07/03 03:01:34;;;;;;;1.83;1.23;;;19.60;99.90;;;;;;5008830;28;20419;-76
2022/07/03 03:04:14;;;;;;;2.13;1.07;;;19.50;99.90;;;;;;5008719;28;20419;-75
2022/07/03 03:06:47;;;;;;;1.07;0.97;;;19.50;99.90;;;;;;4991491;28;20914;-75
2022/07/03 03:09:19;;;;;;;1.53;0.80;;;19.50;99.90;;;;;;4991101;28;20428;-76
2022/07/03 03:11:45;;;;;;;1.40;1.10;;;19.50;99.90;;;;;;4990704;28;20465;-76
2022/07/03 03:14:15;;;;;;;8.20;1.27;;;19.40;99.90;;;;;;4990805;28;20424;-76
2022/07/03 03:17:04;;;;;;;1.83;1.40;;;19.30;99.90;;;;;;4974525;28;20439;-74
2022/07/03 03:19:34;;;;;;;2.73;1.63;;;19.20;99.90;;;;;;4991497;28;20428;-77
2022/07/03 03:22:37;;;;;;;1.60;1.40;;;18.90;99.90;;;;;;5012704;28;20424;-77
2022/07/03 03:25:03;;;;;;;2.73;2.10;;;18.70;99.90;;;;;;4994654;28;20963;-74
2022/07/03 03:27:29;;;;;;;1.93;1.60;;;18.40;99.90;;;;;;5012608;28;20419;-74
2022/07/03 03:29:55;;;;;;;1.60;1.20;;;18.20;99.90;;;;;;4978537;28;20263;-75
2022/07/03 03:32:21;;;;;;;2.30;1.80;;;18.00;99.90;;;;;;5012587;28;20497;-76
2022/07/03 03:34:48;;;;;;;2.93;1.93;;;17.80;99.90;;;;;;4978405;28;20686;-75
2022/07/03 03:37:15;;;;;;;3.53;2.10;;;17.70;99.90;;;;;;5012518;28;20459;-73
2022/07/03 03:39:41;;;;;;;2.30;2.10;;;17.50;99.90;;;;;;5012261;28;20931;-73
2022/07/03 03:42:08;;;;;;;2.03;1.93;;;17.40;99.90;;;;;;4978559;28;20439;-74
2022/07/03 03:44:34;;;;;;;3.17;1.83;;;17.30;99.90;;;;;;4994930;28;20486;-75
2022/07/03 03:46:59;;;;;;;2.20;2.00;;;17.10;99.90;;;;;;5012295;28;20925;-73
2022/07/03 03:49:25;;;;;;;1.93;1.80;;;17.10;99.90;;;;;;5012286;28;20192;-73
2022/07/03 03:51:52;;;;;;;5.40;2.30;;;17.10;99.90;;;;;;5012116;28;20862;-73
2022/07/03 03:54:18;;;;;;;3.83;2.10;;;17.10;99.90;;;;;;5012279;28;21091;-73
2022/07/03 03:56:43;;;;;;;3.73;2.10;;;17.00;99.90;;;;;;4994069;28;20474;-78
2022/07/03 03:59:09;;;;;;;2.03;1.93;;;17.00;99.90;;;;;;5012204;28;20180;-76
2022/07/03 04:01:35;;;;;;;3.43;1.83;;;16.90;99.90;;;;;;4994812;28;20195;-77
2022/07/03 04:04:00;;;;;;;1.90;1.80;;;16.90;99.90;;;;;;4979075;28;20338;-75
2022/07/03 04:06:26;;;;;;;2.67;2.00;;;17.10;99.90;;;;;;4994259;28;20189;-77
2022/07/03 04:08:52;;;;;;;2.23;2.03;;;16.90;99.90;;;;;;5012112;28;20505;-75
2022/07/03 04:11:18;;;;;;;2.17;2.00;;;17.00;99.90;;;;;;5011966;28;20206;-75
2022/07/03 04:13:45;;;;;;;3.13;1.60;;;17.10;99.90;;;;;;5012036;28;20707;-75
2022/07/03 04:16:11;;;;;;;2.63;1.80;;;17.20;99.90;;;;;;4994487;28;20455;-75
2022/07/03 04:18:37;;;;;;;1.73;1.63;;;17.10;99.90;;;;;;5011674;28;20565;-75
2022/07/03 04:21:03;;;;;;;7.50;2.30;;;17.00;99.90;;;;;;5011625;28;20526;-75
2022/07/03 04:23:29;;;;;;;2.13;1.93;;;17.10;99.90;;;;;;5011707;28;20501;-75
2022/07/03 04:25:54;;;;;;;3.97;2.20;;;17.20;99.90;;;;;;4994060;28;20490;-75
2022/07/03 04:28:21;;;;;;;3.10;2.07;;;17.20;99.90;;;;;;5011985;28;20472;-75
2022/07/03 04:30:47;;;;;;;4.13;2.83;;;17.40;99.90;;;;;;5011761;28;20238;-73
2022/07/03 04:33:12;;;;;;;2.10;2.00;;;17.50;99.90;;;;;;5011307;28;20534;-73
2022/07/03 04:35:38;;;;;;;2.40;1.87;;;17.60;99.90;;;;;;5011659;28;20716;-75
2022/07/03 04:38:04;;;;;;;2.53;1.40;;;17.60;99.90;;;;;;5011476;28;20208;-73
2022/07/03 04:40:29;;;;;;;1.47;1.37;;;17.80;99.90;;;;;;5011498;28;20254;-73
2022/07/03 04:42:55;;;;;;;1.93;1.67;;;17.90;99.90;;;;;;5011591;28;20177;-76
2022/07/03 04:45:21;;;;;;;4.50;1.50;;;18.00;99.90;;;;;;5011633;28;20206;-75
2022/07/03 04:47:47;;;;;;;3.43;1.50;;;18.30;99.90;;;;;;5011536;28;20215;-74
2022/07/03 04:50:12;;;;;;;3.17;2.30;;;18.50;99.90;;;;;;4994283;28;20275;-75
2022/07/03 04:52:38;;;;;;;4.70;2.37;;;18.60;99.90;;;;;;4979177;28;20219;-76
2022/07/03 04:55:04;;;;;;;1.70;1.60;;;18.70;99.90;;;;;;4994394;28;20220;-73
2022/07/03 04:57:30;;;;;;;2.40;2.07;;;18.80;99.90;;;;;;5011737;28;20215;-74
2022/07/03 04:59:56;;;;;;;2.90;2.47;;;18.90;99.90;;;;;;4994157;28;20430;-76
2022/07/03 05:02:21;;;;;;;3.67;2.10;;;18.90;99.90;;;;;;5011692;28;20706;-75
2022/07/03 05:04:47;;;;;;;2.80;1.60;;;18.70;99.90;;;;;;4994235;28;20205;-75
2022/07/03 05:07:13;;;;;;;3.17;1.50;;;18.60;99.90;;;;;;4977716;28;20235;-75
2022/07/03 05:09:38;;;;;;;2.40;1.70;;;18.70;99.90;;;;;;4993634;28;20243;-75
2022/07/03 05:12:04;;;;;;;5.60;1.60;;;18.70;99.90;;;;;;5011476;28;20190;-75
2022/07/03 05:14:30;;;;;;;1.97;1.73;;;18.90;99.90;;;;;;4993955;28;20220;-78
2022/07/03 05:16:56;;;;;;;2.60;1.87;;;18.90;99.90;;;;;;5010863;28;20420;-78
2022/07/03 05:19:21;;;;;;;1.97;1.47;;;19.00;99.90;;;;;;4993768;28;20187;-75
2022/07/03 05:21:47;;;;;;;3.10;1.37;;;19.10;99.90;;;;;;5010700;28;20540;-75
2022/07/03 05:24:12;;;;;;;1.30;1.20;;;19.30;99.90;;;;;;4976717;28;20186;-75
2022/07/03 05:26:38;;;;;;;1.70;1.60;;;19.60;99.90;;;;;;5010630;28;20175;-75
2022/07/03 05:29:04;;;;;;;4.10;1.40;;;19.90;99.90;;;;;;4993273;28;20200;-75
2022/07/03 05:31:29;;;;;;;1.67;1.13;;;20.10;99.90;;;;;;5010617;28;20194;-75
2022/07/03 05:33:55;;;;;;;1.23;1.13;;;20.40;99.90;;;;;;4993041;28;20252;-75
2022/07/03 05:36:21;;;;;;;1.50;1.30;;;20.60;99.90;;;;;;5010368;28;20694;-76
2022/07/03 05:41:31;;;;;;;2.47;0.90;;;20.90;99.90;;;;;;5011331;28;20681;-74
2022/07/03 05:43:57;;;;;;;1.30;1.20;;;21.10;99.90;;;;;;4992935;28;20420;-75
2022/07/03 05:46:23;;;;;;;1.27;1.17;;;21.20;99.90;;;;;;5015142;28;20204;-76
2022/07/03 05:48:48;;;;;;;1.20;1.10;;;21.30;99.90;;;;;;4997738;28;20438;-76
2022/07/03 05:51:14;;;;;;;1.30;1.20;;;21.40;99.90;;;;;;4996881;28;20365;-77
2022/07/03 05:53:40;;;;;;;2.00;1.17;;;21.60;99.90;;;;;;4994629;28;20227;-76
2022/07/03 05:56:05;;;;;;;2.60;0.90;;;21.70;99.90;;;;;;5011749;28;20260;-76
2022/07/03 05:58:31;;;;;;;2.60;1.17;;;21.80;99.90;;;;;;4993765;28;20219;-76
2022/07/03 06:00:57;;;;;;;1.57;1.47;;;22.00;99.90;;;;;;4994220;28;20193;-76
2022/07/03 06:03:22;;;;;;;1.40;1.03;;;22.00;99.90;;;;;;4977663;28;20186;-79
2022/07/03 06:05:48;;;;;;;1.70;1.60;;;22.20;99.90;;;;;;5011222;28;20205;-77
2022/07/03 06:08:13;;;;;;;2.23;1.17;;;22.20;99.90;;;;;;4993977;28;20194;-78
2022/07/03 06:10:39;;;;;;;11.73;1.33;;;22.30;99.90;;;;;;4978974;28;20193;-76
2022/07/03 06:13:05;;;;;;;1.53;1.23;;;22.40;99.90;;;;;;5012091;28;20193;-77
2022/07/03 06:15:31;;;;;;;1.53;1.30;;;22.40;99.90;;;;;;4993753;28;20452;-78
2022/07/03 06:17:58;;;;;;;1.83;1.10;;;22.50;99.90;;;;;;5011306;28;20217;-77
2022/07/03 06:20:23;;;;;;;1.30;1.17;;;22.60;99.90;;;;;;5011319;28;20194;-77
2022/07/03 06:22:49;;;;;;;1.87;1.17;;;22.70;99.90;;;;;;4976689;28;20449;-77
2022/07/03 06:25:14;;;;;;;1.07;0.97;;;22.70;99.90;;;;;;4993492;28;21053;-77
2022/07/03 06:27:42;;;;;;;1.13;1.00;;;22.70;99.90;;;;;;4977043;28;20200;-77
2022/07/03 06:30:08;;;;;;;1.50;1.27;;;22.80;99.90;;;;;;4994971;28;20596;-77
2022/07/03 06:32:34;;;;;;;1.80;1.20;;;22.90;99.90;;;;;;5010418;28;20433;-76
2022/07/03 06:35:00;;;;;;;1.40;1.17;;;23.10;99.90;;;;;;4992582;28;20442;-77
2022/07/03 06:37:25;;;;;;;2.50;1.13;;;23.00;99.90;;;;;;5010213;28;20210;-76
2022/07/03 06:39:51;;;;;;;2.03;1.33;;;23.00;99.90;;;;;;4992413;28;20227;-76
2022/07/03 06:42:16;;;;;;;1.43;1.30;;;23.10;99.90;;;;;;4977245;28;20666;-77
2022/07/03 06:44:44;;;;;;;1.30;0.97;;;23.20;99.90;;;;;;5011745;28;20197;-76
2022/07/03 06:47:10;;;;;;;4.00;1.10;;;23.20;99.90;;;;;;5011352;28;20631;-77
2022/07/03 06:49:36;;;;;;;2.20;1.47;;;23.30;99.90;;;;;;4993384;28;20435;-76
2022/07/03 06:52:02;;;;;;;1.30;0.90;;;23.20;99.90;;;;;;4977778;28;20195;-77
2022/07/03 06:54:27;;;;;;;1.13;1.00;;;23.40;99.90;;;;;;5010497;28;20995;-77
2022/07/03 06:56:53;;;;;;;1.33;0.90;;;23.50;99.90;;;;;;5011010;28;20196;-77
2022/07/03 06:59:19;;;;;;;5.30;1.13;;;23.50;99.90;;;;;;5011528;28;20179;-77
2022/07/03 07:01:45;;;;;;;1.70;1.30;;;23.60;99.90;;;;;;5014389;28;20179;-77
2022/07/03 07:04:10;;;;;;;1.17;0.80;;;23.60;99.90;;;;;;5012504;28;20948;-77
2022/07/03 07:06:36;;;;;;;2.07;1.00;;;23.70;99.90;;;;;;5012694;28;20437;-78
2022/07/03 07:09:03;;;;;;;2.10;1.00;;;23.80;99.90;;;;;;5011740;28;20215;-76
2022/07/03 07:11:28;;;;;;;2.80;1.07;;;23.80;99.90;;;;;;4994122;28;20947;-77
2022/07/03 07:13:54;;;;;;;1.20;0.77;;;23.90;99.90;;;;;;5011601;28;20448;-76
2022/07/03 07:16:20;;;;;;;3.73;0.80;;;23.90;99.90;;;;;;4993316;28;20231;-77
2022/07/03 07:18:45;;;;;;;1.20;1.10;;;23.80;99.90;;;;;;5010750;28;20207;-78
2022/07/03 07:21:11;;;;;;;2.00;0.90;;;23.80;99.90;;;;;;5011485;28;20184;-78
2022/07/03 07:23:37;;;;;;;1.77;1.10;;;23.80;99.90;;;;;;5011863;28;20192;-78
2022/07/03 07:26:04;;;;;;;1.50;0.97;;;23.90;99.90;;;;;;4993699;28;20249;-77
2022/07/03 07:28:30;;;;;;;2.90;0.90;;;24.00;99.90;;;;;;4992523;28;20211;-78
2022/07/03 07:30:57;;;;;;;0.87;0.77;;;24.00;99.90;;;;;;4975497;28;20453;-77
2022/07/03 07:33:23;;;;;;;1.47;1.10;;;24.00;99.90;;;;;;4991580;28;20430;-77
2022/07/03 07:35:50;;;;;;;1.73;0.80;;;24.10;98.70;;;;;;4991551;28;20455;-77
2022/07/03 07:38:17;;;;;;;1.63;0.80;;;24.00;99.90;;;;;;4991076;28;20967;-77
2022/07/03 07:40:42;;;;;;;1.10;1.00;;;24.10;99.90;;;;;;5009254;28;20428;-77
2022/07/03 07:43:08;;;;;;;1.47;0.80;;;24.10;99.90;;;;;;4992184;28;20794;-77
2022/07/03 07:45:34;;;;;;;1.83;1.07;;;24.10;99.90;;;;;;5010701;28;20261;-78
2022/07/03 07:48:00;;;;;;;1.40;0.87;;;24.10;99.90;;;;;;5010573;28;20256;-77
2022/07/03 07:50:26;;;;;;;2.40;1.23;;;24.10;99.90;;;;;;4992068;28;20471;-77
2022/07/03 07:52:52;;;;;;;1.20;1.10;;;24.10;99.90;;;;;;4992146;28;20197;-77
2022/07/03 07:55:18;;;;;;;1.57;0.90;;;24.10;99.90;;;;;;4990860;28;20542;-77
2022/07/03 07:57:45;;;;;;;1.60;0.93;;;24.20;99.90;;;;;;4991885;28;20550;-77
2022/07/03 08:00:22;;;;;;;1.40;0.87;;;24.20;99.90;;;;;;5009770;28;20507;-77
2022/07/03 08:05:37;;;;;;;1.70;1.00;;;24.30;99.90;;;;;;5009966;28;20446;-77
2022/07/03 08:08:09;;;;;;;0.90;0.80;;;24.30;99.90;;;;;;5012640;28;20533;-77
2022/07/03 08:10:48;;;;;;;1.10;0.80;;;24.40;99.90;;;;;;5014206;28;20623;-77
2022/07/03 08:13:16;;;;;;;3.73;1.23;;;24.50;99.90;;;;;;5013628;28;20919;-77
2022/07/03 08:15:43;;;;;;;1.10;0.70;;;24.60;98.30;;;;;;4995635;28;20462;-77
2022/07/03 08:18:09;;;;;;;1.23;0.83;;;24.60;95.70;;;;;;4995535;28;20477;-77
2022/07/03 08:20:36;;;;;;;1.63;0.87;;;24.60;97.40;;;;;;5010760;28;20434;-77
2022/07/03 08:23:02;;;;;;;2.87;0.90;;;24.70;95.90;;;;;;4992772;28;20419;-77
2022/07/03 08:25:29;;;;;;;1.10;0.63;;;24.70;94.90;;;;;;5010296;28;20526;-78
2022/07/03 08:27:55;;;;;;;1.00;0.70;;;24.80;91.40;;;;;;4992644;28;20516;-78
2022/07/03 08:30:21;;;;;;;0.90;0.80;;;24.90;90.10;;;;;;5010107;28;20480;-77
2022/07/03 08:32:49;;;;;;;2.30;0.90;;;25.10;92.20;;;;;;5010056;28;20428;-77
2022/07/03 08:35:15;;;;;;;3.10;0.60;;;25.10;90.70;;;;;;5009894;28;20232;-77
2022/07/03 08:37:42;;;;;;;0.90;0.70;;;25.20;93.00;;;;;;5009819;28;20465;-78
2022/07/03 08:40:10;;;;;;;1.00;0.60;;;25.30;91.50;;;;;;5009747;28;20480;-77
2022/07/03 08:42:40;;;;;;;0.90;0.73;;;25.40;92.20;;;;;;4991951;28;20439;-78
2022/07/03 08:45:08;;;;;;;0.80;0.80;;;25.60;91.40;;;;;;5010698;28;20801;-78
2022/07/03 08:47:37;;;;;;;2.13;0.80;;;25.80;91.10;;;;;;5009632;28;20432;-78
2022/07/03 08:50:03;;;;;;;1.37;0.80;;;25.80;85.80;;;;;;4975726;28;20572;-77
2022/07/03 08:52:30;;;;;;;1.67;0.77;;;26.00;89.30;;;;;;4975527;28;20968;-78
2022/07/03 08:54:55;;;;;;;1.00;0.90;;;26.10;90.40;;;;;;5009290;28;20497;-77
2022/07/03 08:57:23;;;;;;;5.00;0.70;;;26.40;90.40;;;;;;4991652;28;20882;-77
2022/07/03 08:59:52;;;;;;;3.43;0.87;;;26.60;88.90;;;;;;5009358;28;20188;-78
2022/07/03 09:02:18;;;;;;;0.90;0.60;;;26.80;86.90;;;;;;5009239;28;20424;-77
2022/07/03 09:04:45;;;;;;;0.80;0.70;;;26.90;82.10;;;;;;4991909;28;20449;-77
2022/07/03 09:07:14;;;;;;;3.30;1.20;;;27.00;84.30;;;;;;4991859;28;20775;-80
2022/07/03 09:09:39;;;;;;;2.97;0.80;;;27.10;78.80;;;;;;4975999;28;20434;-77
2022/07/03 09:12:06;;;;;;;4.57;0.87;;;27.30;80.90;;;;;;5010669;28;20834;-78
2022/07/03 09:14:32;;;;;;;1.83;0.90;;;27.50;84.00;;;;;;4991310;28;20689;-79
2022/07/03 09:16:58;;;;;;;0.80;0.70;;;27.70;80.50;;;;;;4993315;28;20436;-83
2022/07/03 09:20:04;;;;;;;1.37;0.80;;;27.80;76.70;;;;;;4995468;28;20428;-83
2022/07/03 09:22:31;;;;;;;2.97;0.70;;;27.80;75.60;;;;;;4898061;29;20427;-83
2022/07/03 09:25:06;;;;;;;2.50;0.73;;;28.00;74.50;;;;;;4899299;29;21088;-83
2022/07/03 09:27:33;;;;;;;5.13;1.00;;;28.30;79.80;;;;;;4969661;28;20431;-82
2022/07/03 09:30:04;;;;;;;1.47;0.70;;;28.40;75.30;;;;;;5014853;28;20431;-82
2022/07/03 09:32:41;;;;;;;1.27;0.80;;;28.60;73.80;;;;;;5013522;28;20841;-83
2022/07/03 09:35:25;;;;;;;4.50;0.70;;;28.90;77.20;;;;;;4996916;28;20448;-83
2022/07/03 09:37:56;;;;;;;1.00;0.77;;;29.10;71.40;;;;;;4980720;28;20897;-82
2022/07/03 09:40:23;;;;;;;1.40;0.70;;;29.30;73.00;;;;;;4994979;28;20494;-82
2022/07/03 09:43:04;;;;;;;40.37;2.50;;;29.60;70.00;;;;;;4997602;28;20443;-82
2022/07/03 09:45:53;;;;;;;5.37;0.90;;;29.70;67.60;;;;;;4981104;28;21005;-82
2022/07/03 09:48:29;;;;;;;1.40;0.70;;;30.00;68.20;;;;;;4984223;28;20436;-82
2022/07/03 09:51:28;;;;;;;0.90;0.70;;;30.10;67.70;;;;;;5018415;28;20423;-82
2022/07/03 09:54:02;;;;;;;0.90;0.70;;;30.10;64.80;;;;;;5018021;28;20420;-82
2022/07/03 09:56:32;;;;;;;1.30;0.80;;;30.00;62.80;;;;;;4979718;28;20462;-81
2022/07/03 09:59:12;;;;;;;1.10;0.70;;;29.90;60.80;;;;;;4991548;28;20518;-80
2022/07/03 10:01:46;;;;;;;5.13;1.17;;;29.80;60.60;;;;;;4975338;28;20420;-78
2022/07/03 10:04:22;;;;;;;4.70;0.90;;;30.10;65.20;;;;;;4992713;28;20433;-79
2022/07/03 10:06:52;;;;;;;1.20;0.73;;;30.40;64.30;;;;;;4995418;28;20423;-80
2022/07/03 10:09:20;;;;;;;1.20;0.70;;;30.60;64.80;;;;;;4992433;28;20432;-78
2022/07/03 10:11:46;;;;;;;2.03;0.90;;;31.00;65.10;;;;;;4992109;28;20455;-78
2022/07/03 10:14:17;;;;;;;1.93;0.60;;;31.20;62.50;;;;;;5009541;28;20431;-81
2022/07/03 10:16:43;;;;;;;1.00;0.60;;;31.30;64.50;;;;;;4975516;28;20440;-81
2022/07/03 10:19:19;;;;;;;0.90;0.73;;;31.40;62.70;;;;;;5013695;28;20467;-82
2022/07/03 10:22:10;;;;;;;4.60;0.70;;;31.40;61.20;;;;;;4994976;28;20478;-82
2022/07/03 10:24:36;;;;;;;0.80;0.60;;;31.40;58.90;;;;;;4992877;28;20448;-82
2022/07/03 10:27:01;;;;;;;3.60;0.60;;;31.30;62.90;;;;;;4996499;28;20949;-81
2022/07/03 10:29:28;;;;;;;1.77;0.73;;;31.20;60.80;;;;;;4978070;28;20491;-81
2022/07/03 10:31:54;;;;;;;1.07;0.67;;;31.00;62.50;;;;;;4979203;28;20195;-82
2022/07/03 10:34:22;;;;;;;1.33;0.70;;;30.80;59.00;;;;;;4995111;28;20869;-82
2022/07/03 10:36:53;;;;;;;0.80;0.53;;;30.70;59.30;;;;;;4977606;28;20523;-81
2022/07/03 10:39:51;;;;;;;1.80;0.70;;;30.60;62.40;;;;;;4978173;28;20916;-82
2022/07/03 10:45:14;;;;;;;1.53;0.50;;;30.50;58.40;;;;;;5014376;28;20435;-80
2022/07/03 10:47:42;;;;;;;4.93;0.77;;;30.60;62.50;;;;;;4992706;28;20921;-80
2022/07/03 10:50:23;;;;;;;2.03;0.80;;;30.50;60.70;;;;;;4992166;28;20772;-80
2022/07/03 10:52:49;;;;;;;2.33;0.73;;;30.60;64.20;;;;;;4994774;28;20470;-81
2022/07/03 10:55:16;;;;;;;1.97;0.70;;;30.70;59.50;;;;;;4976464;28;20494;-81
2022/07/03 10:58:09;;;;;;;0.80;0.60;;;30.70;56.80;;;;;;4992198;28;20463;-81
2022/07/03 11:01:07;;;;;;;0.80;0.50;;;30.60;62.70;;;;;;4975551;28;20509;-81
2022/07/03 11:03:52;;;;;;;2.50;0.80;;;30.70;62.20;;;;;;4938899;28;20440;-80
2022/07/03 11:06:17;;;;;;;0.80;0.67;;;30.60;59.80;;;;;;4991527;28;20992;-81
2022/07/03 11:09:04;;;;;;;1.17;0.50;;;30.40;58.90;;;;;;5009759;28;20424;-80
2022/07/03 11:11:55;;;;;;;0.90;0.77;;;30.50;59.90;;;;;;4993286;28;20223;-80
2022/07/03 11:14:25;;;;;;;3.33;0.70;;;30.60;61.10;;;;;;4976643;28;20427;-80
2022/07/03 11:17:20;;;;;;;0.70;0.57;;;30.70;58.90;;;;;;4983402;28;20478;-80
2022/07/03 11:20:23;;;;;;;1.40;0.97;;;30.20;54.10;;;;;;5017282;28;20477;-83
2022/07/03 11:23:07;;;;;;;1.10;0.70;;;30.10;55.80;;;;;;5000382;28;20434;-82
2022/07/03 11:25:44;;;;;;;1.53;0.70;;;30.30;58.40;;;;;;4996697;28;20443;-82
2022/07/03 11:28:32;;;;;;;2.10;0.57;;;30.40;58.20;;;;;;4992179;28;20480;-82
2022/07/03 11:31:10;;;;;;;3.27;0.53;;;30.40;58.00;;;;;;4990619;28;21002;-82
2022/07/03 11:33:42;;;;;;;5.53;0.80;;;30.50;58.80;;;;;;5007706;28;20840;-81
2022/07/03 11:36:17;;;;;;;1.60;0.80;;;30.60;60.80;;;;;;5007824;28;20543;-81
2022/07/03 11:38:54;;;;;;;0.80;0.60;;;30.80;58.70;;;;;;5008242;28;20939;-79
2022/07/03 11:41:20;;;;;;;1.60;0.70;;;30.80;59.50;;;;;;5009906;28;20498;-79
2022/07/03 11:43:58;;;;;;;0.90;0.70;;;30.80;56.30;;;;;;5013130;28;20420;-79
2022/07/03 11:46:25;;;;;;;0.83;0.50;;;30.80;56.80;;;;;;4995684;28;20438;-81
2022/07/03 11:49:14;;;;;;;2.10;0.70;;;30.80;58.20;;;;;;5011970;28;20424;-81
2022/07/03 11:51:43;;;;;;;1.10;0.60;;;30.80;55.50;;;;;;4977761;28;20518;-81
2022/07/03 11:54:09;;;;;;;0.90;0.60;;;30.70;55.10;;;;;;4994049;28;20420;-81
2022/07/03 11:56:36;;;;;;;0.80;0.60;;;30.50;55.80;;;;;;4994617;28;20411;-81
2022/07/03 11:59:04;;;;;;;1.00;0.60;;;30.50;55.90;;;;;;4995560;28;20491;-81
2022/07/03 12:01:33;;;;;;;1.20;0.60;;;30.60;57.60;;;;;;4998426;28;20957;-81
2022/07/03 12:04:15;;;;;;;0.87;0.63;;;30.80;57.40;;;;;;4999258;28;20490;-82
2022/07/03 12:06:50;;;;;;;4.20;0.77;;;30.90;54.10;;;;;;4999968;28;20929;-82
2022/07/03 12:09:30;;;;;;;0.90;0.77;;;30.90;57.90;;;;;;4983155;28;20941;-82
2022/07/03 12:11:59;;;;;;;1.33;0.87;;;31.10;59.20;;;;;;5019073;28;20448;-81
2022/07/03 12:14:45;;;;;;;1.30;0.60;;;31.00;57.60;;;;;;5014880;28;20454;-81
2022/07/03 12:17:22;;;;;;;3.00;0.80;;;31.10;55.30;;;;;;4998161;28;20423;-80
2022/07/03 12:19:58;;;;;;;1.03;0.73;;;31.20;57.70;;;;;;5016918;28;20423;-80
2022/07/03 12:22:37;;;;;;;2.07;0.60;;;30.90;55.10;;;;;;5016196;28;20958;-80
2022/07/03 12:25:05;;;;;;;1.53;0.70;;;30.90;56.90;;;;;;5016253;28;20446;-80
2022/07/03 12:27:33;;;;;;;2.10;1.13;;;30.90;56.00;;;;;;5018459;28;20419;-80
2022/07/03 12:29:59;;;;;;;2.30;0.60;;;31.10;57.40;;;;;;5024636;28;20440;-80
2022/07/03 12:32:26;;;;;;;1.73;0.90;;;31.10;58.60;;;;;;5006525;28;20432;-80
2022/07/03 12:34:52;;;;;;;0.90;0.60;;;31.10;57.30;;;;;;5005378;28;20451;-80
2022/07/03 12:37:32;;;;;;;0.90;0.60;;;31.20;56.50;;;;;;5006156;28;21031;-80
2022/07/03 12:39:57;;;;;;;1.47;0.70;;;31.30;56.30;;;;;;5022070;28;20456;-80
2022/07/03 12:42:23;;;;;;;1.27;0.50;;;31.30;56.60;;;;;;5004516;28;20506;-80
2022/07/03 12:44:59;;;;;;;3.13;0.90;;;31.40;56.50;;;;;;5005241;28;20259;-80
2022/07/03 12:47:26;;;;;;;1.70;0.73;;;31.40;57.70;;;;;;5021736;28;20193;-80
2022/07/03 12:50:06;;;;;;;2.20;0.63;;;31.40;57.20;;;;;;4995531;28;20428;-79
2022/07/03 12:52:33;;;;;;;1.00;0.67;;;31.40;56.50;;;;;;4995870;28;20428;-80
2022/07/03 12:55:01;;;;;;;1.30;0.77;;;31.40;56.20;;;;;;4978374;28;20513;-80
2022/07/03 13:00:16;;;;;;;0.70;0.60;;;31.50;57.30;;;;;;5012115;28;20403;-79
2022/07/03 13:02:42;;;;;;;2.13;0.90;;;31.50;57.70;;;;;;5011728;28;21060;-80
2022/07/03 13:05:19;;;;;;;1.30;0.80;;;31.50;58.00;;;;;;4993763;28;20436;-80
2022/07/03 13:07:55;;;;;;;2.80;0.90;;;31.50;58.40;;;;;;4992992;28;20428;-80
2022/07/03 13:10:23;;;;;;;1.93;0.87;;;31.40;57.80;;;;;;4993233;28;20431;-80
2022/07/03 13:12:59;;;;;;;0.90;0.70;;;31.50;54.70;;;;;;4976454;28;20837;-80
2022/07/03 13:15:26;;;;;;;1.57;0.90;;;31.50;56.50;;;;;;4977021;28;20547;-80